createdAt,value
2019-02-24T08:43:58.014Z,26.70
2019-02-24T08:46:30.152Z,26.60
2019-02-24T08:49:01.985Z,26.60
2019-02-24T08:51:34.048Z,26.50
2019-02-24T08:54:05.832Z,26.50
2019-02-24T08:56:37.819Z,26.40
2019-02-24T08:59:09.937Z,26.40
2019-02-24T09:01:42.005Z,26.20
2019-02-24T09:04:14.100Z,26.20
2019-02-24T09:06:46.119Z,26.10
2019-02-24T09:09:17.878Z,26.10
2019-02-24T09:11:49.662Z,25.90
2019-02-24T09:14:21.672Z,25.90
2019-02-24T09:16:53.745Z,25.50
2019-02-24T09:19:25.477Z,25.30
2019-02-24T09:21:58.494Z,25.10
2019-02-24T09:24:30.396Z,25.00
2019-02-24T09:27:02.408Z,24.90
2019-02-24T09:29:34.283Z,24.80
2019-02-24T09:32:06.296Z,24.60
2019-02-24T09:34:38.073Z,24.50
2019-02-24T09:37:09.969Z,24.40
2019-02-24T09:39:42.388Z,24.20
2019-02-24T09:42:21.966Z,23.80
2019-02-24T09:44:55.361Z,23.70
2019-02-24T09:47:27.224Z,23.90
2019-02-24T09:50:00.464Z,24.20
2019-02-24T09:52:34.277Z,24.50
2019-02-24T09:55:07.026Z,24.40
2019-02-24T09:57:38.957Z,24.40
2019-02-24T10:00:12.114Z,24.20
2019-02-24T10:02:44.716Z,24.10
2019-02-24T10:05:16.718Z,23.80
2019-02-24T10:07:48.366Z,23.90
2019-02-24T10:10:20.241Z,23.30
2019-02-24T10:12:52.160Z,23.40
2019-02-24T10:15:25.141Z,23.10
2019-02-24T10:17:56.928Z,22.90
2019-02-24T10:20:28.714Z,22.80
2019-02-24T10:23:00.484Z,22.60
2019-02-24T10:25:32.548Z,22.60
2019-02-24T10:28:04.398Z,22.40
2019-02-24T10:30:36.390Z,21.60
2019-02-24T10:33:08.317Z,21.80
2019-02-24T10:35:40.109Z,21.80
2019-02-24T10:38:12.059Z,21.80
2019-02-24T10:40:43.983Z,21.50
2019-02-24T10:43:15.804Z,20.80
2019-02-24T10:45:47.623Z,20.30
2019-02-24T10:48:19.334Z,19.80
2019-02-24T10:50:53.550Z,19.70
2019-02-24T10:53:25.601Z,20.10
2019-02-24T10:55:57.991Z,20.10
2019-02-24T10:58:34.770Z,19.30
2019-02-24T11:01:03.375Z,19.90
2019-02-24T11:03:39.222Z,19.10
2019-02-24T11:06:12.863Z,19.20
2019-02-24T11:08:44.832Z,19.30
2019-02-24T11:11:16.818Z,18.70
2019-02-24T11:13:48.708Z,18.40
2019-02-24T11:16:20.599Z,17.80
2019-02-24T11:18:52.550Z,17.50
2019-02-24T11:21:24.761Z,17.10
2019-02-24T11:23:56.661Z,16.30
2019-02-24T11:26:29.129Z,16.60
2019-02-24T11:29:01.453Z,15.80
2019-02-24T11:31:38.412Z,16.60
2019-02-24T11:34:07.849Z,16.10
2019-02-24T11:36:40.557Z,15.90
2019-02-24T11:39:12.861Z,15.80
2019-02-24T11:41:45.195Z,16.40
2019-02-24T11:44:17.731Z,16.40
2019-02-24T11:46:50.157Z,16.40
2019-02-24T11:49:24.120Z,16.20
2019-02-24T11:52:03.643Z,15.90
2019-02-24T11:54:31.068Z,15.60
2019-02-24T11:57:03.505Z,16.00
2019-02-24T11:59:35.807Z,15.20
2019-02-24T12:02:08.778Z,14.90
2019-02-24T12:04:41.137Z,14.60
2019-02-24T12:07:13.024Z,14.40
2019-02-24T12:09:45.386Z,12.60
2019-02-24T12:12:17.718Z,13.30
2019-02-24T12:14:50.223Z,13.50
2019-02-24T12:17:22.587Z,13.20
2019-02-24T12:19:55.038Z,13.50
2019-02-24T12:22:27.431Z,13.10
2019-02-24T12:24:59.935Z,13.10
2019-02-24T12:27:32.444Z,13.10
2019-02-24T12:30:05.496Z,12.70
2019-02-24T12:32:37.791Z,12.80
2019-02-24T12:35:10.580Z,12.90
2019-02-24T12:37:43.101Z,12.80
2019-02-24T12:40:15.388Z,12.90
2019-02-24T12:42:48.288Z,12.80
2019-02-24T12:45:20.794Z,12.80
2019-02-24T12:47:53.279Z,12.50
2019-02-24T12:50:25.703Z,12.60
2019-02-24T12:52:58.421Z,12.60
2019-02-24T12:55:31.025Z,12.80
2019-02-24T12:58:03.443Z,12.70
2019-02-24T13:00:36.060Z,12.30
2019-02-24T13:03:08.421Z,11.80
2019-02-24T13:05:45.574Z,11.00
2019-02-24T13:08:17.970Z,11.00
2019-02-24T13:10:50.303Z,10.70
2019-02-24T13:13:22.725Z,10.80
2019-02-24T13:15:55.084Z,10.80
2019-02-24T13:18:27.576Z,10.70
2019-02-24T13:20:59.959Z,10.70
2019-02-24T13:23:35.147Z,10.80
2019-02-24T13:26:07.296Z,10.70
2019-02-24T13:31:43.644Z,10.30
2019-02-24T13:34:16.090Z,10.50
2019-02-24T13:36:48.535Z,9.90
2019-02-24T13:39:20.861Z,9.50
2019-02-24T13:41:53.766Z,10.00
2019-02-24T13:44:26.323Z,10.10
2019-02-24T13:46:58.978Z,9.90
2019-02-24T13:49:31.316Z,9.90
2019-02-24T13:52:03.837Z,10.00
2019-02-24T13:54:36.292Z,10.00
2019-02-24T13:57:08.843Z,9.80
2019-02-24T13:59:40.843Z,9.50
2019-02-24T14:02:13.298Z,9.50
2019-02-24T14:04:45.826Z,9.30
2019-02-24T14:07:18.311Z,9.40
2019-02-24T14:09:50.081Z,9.40
2019-02-24T14:12:21.797Z,9.40
2019-02-24T14:14:57.293Z,9.50
2019-02-24T14:17:29.340Z,9.50
2019-02-24T14:20:01.338Z,9.80
2019-02-24T14:22:33.103Z,10.00
2019-02-24T14:25:05.344Z,10.20
2019-02-24T14:27:37.895Z,9.90
2019-02-24T14:30:12.908Z,9.70
2019-02-24T14:32:44.921Z,9.80
2019-02-24T14:35:18.104Z,10.00
2019-02-24T14:37:50.139Z,10.00
2019-02-24T14:40:22.023Z,10.20
2019-02-24T14:42:56.335Z,10.30
2019-02-24T14:45:29.694Z,10.40
2019-02-24T14:48:02.006Z,10.60
2019-02-24T14:50:34.751Z,10.60
2019-02-24T14:53:07.634Z,10.50
2019-02-24T14:55:40.231Z,10.30
2019-02-24T14:58:12.122Z,10.20
2019-02-24T15:00:45.055Z,10.10
2019-02-24T15:03:19.758Z,9.80
2019-02-24T15:05:55.368Z,9.80
2019-02-24T15:08:30.749Z,9.60
2019-02-24T15:11:03.184Z,9.50
2019-02-24T15:13:35.162Z,9.50
2019-02-24T15:16:08.791Z,9.70
2019-02-24T15:18:40.956Z,9.80
2019-02-24T15:21:13.162Z,9.80
2019-02-24T15:23:44.981Z,9.80
2019-02-24T15:26:17.270Z,9.80
2019-02-24T15:28:50.838Z,9.90
2019-02-24T15:31:23.533Z,10.40
2019-02-24T15:33:55.665Z,9.70
2019-02-24T15:36:27.569Z,9.60
2019-02-24T15:39:01.827Z,9.50
2019-02-24T15:41:34.413Z,9.40
2019-02-24T15:44:06.306Z,9.40
2019-02-24T15:46:38.513Z,9.60
2019-02-24T15:49:13.517Z,9.70
2019-02-24T15:51:45.689Z,9.80
2019-02-24T15:54:17.596Z,9.70
2019-02-24T15:56:52.108Z,9.80
2019-02-24T15:59:25.136Z,9.90
2019-02-24T16:01:57.973Z,9.80
2019-02-24T16:04:29.909Z,9.90
2019-02-24T16:07:02.712Z,9.90
2019-02-24T16:09:35.222Z,10.00
2019-02-24T16:12:07.098Z,10.00
2019-02-24T16:14:39.410Z,10.10
2019-02-24T16:17:12.792Z,10.10
2019-02-24T16:19:46.982Z,10.20
2019-02-24T16:22:19.082Z,10.10
2019-02-24T16:24:50.813Z,10.00
2019-02-24T16:27:22.623Z,10.00
2019-02-24T16:29:56.301Z,10.00
2019-02-24T16:32:28.132Z,10.70
2019-02-24T16:35:00.482Z,10.20
2019-02-24T16:37:32.232Z,10.40
2019-02-24T16:40:20.140Z,10.30
2019-02-24T16:42:52.020Z,10.00
2019-02-24T16:45:24.040Z,10.20
2019-02-24T16:47:55.827Z,10.20
2019-02-24T16:50:27.657Z,10.30
2019-02-24T16:52:59.433Z,10.40
2019-02-24T16:55:31.444Z,10.40
2019-02-24T16:58:03.783Z,10.60
2019-02-24T17:00:35.751Z,10.70
2019-02-24T17:03:07.697Z,10.80
2019-02-24T17:05:42.314Z,10.80
2019-02-24T17:08:15.705Z,10.90
2019-02-24T17:10:47.810Z,10.90
2019-02-24T17:13:19.758Z,10.90
2019-02-24T17:15:52.907Z,11.10
2019-02-24T17:18:24.772Z,11.30
2019-02-24T17:20:56.594Z,11.40
2019-02-24T17:23:28.622Z,11.40
2019-02-24T17:26:00.404Z,11.50
2019-02-24T17:28:32.241Z,11.70
2019-02-24T17:31:06.961Z,11.80
2019-02-24T17:33:39.455Z,12.00
2019-02-24T17:36:11.430Z,11.90
2019-02-24T17:38:43.986Z,12.10
2019-02-24T17:41:16.581Z,12.20
2019-02-24T17:43:51.014Z,12.20
2019-02-24T17:46:22.906Z,12.10
2019-02-24T17:48:54.938Z,12.10
2019-02-24T17:51:26.996Z,12.20
2019-02-24T17:53:59.172Z,12.20
2019-02-24T17:56:31.258Z,12.30
2019-02-24T17:59:03.788Z,12.50
2019-02-24T18:01:36.070Z,12.60
2019-02-24T18:04:08.266Z,12.60
2019-02-24T18:06:40.304Z,12.60
2019-02-24T18:09:14.412Z,12.70
2019-02-24T18:11:46.638Z,13.00
2019-02-24T18:14:28.364Z,13.00
2019-02-24T18:17:00.299Z,13.10
2019-02-24T18:19:32.145Z,13.30
2019-02-24T18:22:04.526Z,13.10
2019-02-24T18:24:36.690Z,13.30
2019-02-24T18:27:09.554Z,13.30
2019-02-24T18:29:42.994Z,13.60
2019-02-24T18:32:16.914Z,13.50
2019-02-24T18:34:49.119Z,13.50
2019-02-24T18:37:21.074Z,13.50
2019-02-24T18:39:53.311Z,13.60
2019-02-24T18:42:25.173Z,13.80
2019-02-24T18:44:57.066Z,14.00
2019-02-24T18:47:29.391Z,14.00
2019-02-24T18:50:04.261Z,14.00
2019-02-24T18:52:37.158Z,14.20
2019-02-24T18:55:09.616Z,14.50
2019-02-24T18:57:41.733Z,14.60
2019-02-24T19:00:17.151Z,14.70
2019-02-24T19:02:49.163Z,14.80
2019-02-24T19:05:21.213Z,15.00
2019-02-24T19:07:54.129Z,15.10
2019-02-24T19:10:25.949Z,15.00
2019-02-24T19:12:57.715Z,14.80
2019-02-24T19:15:29.711Z,14.70
2019-02-24T19:18:02.044Z,14.80
2019-02-24T19:20:33.927Z,14.90
2019-02-24T19:23:25.286Z,15.10
2019-02-24T19:25:57.158Z,15.50
2019-02-24T19:28:29.146Z,15.00
2019-02-24T19:31:01.263Z,15.10
2019-02-24T19:33:33.704Z,15.50
2019-02-24T19:36:06.835Z,15.90
2019-02-24T19:38:38.893Z,16.20
2019-02-24T19:41:10.848Z,16.20
2019-02-24T19:43:42.984Z,16.20
2019-02-24T19:46:14.981Z,16.10
2019-02-24T19:48:47.227Z,16.40
2019-02-24T19:51:19.398Z,16.80
2019-02-24T19:53:51.432Z,16.80
2019-02-24T19:56:23.406Z,16.80
2019-02-24T19:58:56.034Z,16.80
2019-02-24T20:01:27.888Z,17.00
2019-02-24T20:03:59.690Z,16.80
2019-02-24T20:06:35.156Z,17.00
2019-02-24T20:09:09.156Z,16.90
2019-02-24T20:11:41.046Z,16.80
2019-02-24T20:14:12.956Z,16.90
2019-02-24T20:16:44.846Z,17.00
2019-02-24T20:19:19.297Z,17.30
2019-02-24T20:21:51.148Z,17.90
2019-02-24T20:24:23.036Z,18.10
2019-02-24T20:26:55.069Z,18.30
2019-02-24T20:29:27.127Z,18.50
2019-02-24T20:31:59.736Z,18.50
2019-02-24T20:34:31.698Z,18.30
2019-02-24T20:37:23.877Z,18.50
2019-02-24T20:39:55.712Z,18.30
2019-02-24T20:42:27.847Z,18.30
2019-02-24T20:45:00.055Z,18.40
2019-02-24T20:47:31.889Z,18.50
2019-02-24T20:50:03.976Z,18.70
2019-02-24T20:52:36.010Z,18.80
2019-02-24T20:55:09.437Z,19.10
2019-02-24T20:57:41.306Z,19.00
2019-02-24T21:00:35.694Z,19.10
2019-02-24T21:03:09.173Z,19.10
2019-02-24T21:05:41.282Z,19.10
2019-02-24T21:08:13.239Z,19.20
2019-02-24T21:10:45.102Z,19.30
2019-02-24T21:13:17.085Z,19.30
2019-02-24T21:15:50.301Z,19.40
2019-02-24T21:18:22.034Z,19.70
2019-02-24T21:20:53.873Z,20.00
2019-02-24T21:23:25.651Z,20.10
2019-02-24T21:25:57.438Z,20.20
2019-02-24T21:28:29.241Z,20.20
2019-02-24T21:31:01.133Z,20.20
2019-02-24T21:33:34.042Z,20.40
2019-02-24T21:36:06.024Z,20.70
2019-02-24T21:38:38.309Z,20.60
2019-02-24T21:41:10.547Z,20.70
2019-02-24T21:43:42.701Z,20.80
2019-02-24T21:46:14.399Z,20.70
2019-02-24T21:48:46.213Z,20.60
2019-02-24T21:51:18.088Z,20.70
2019-02-24T21:53:50.562Z,20.60
2019-02-24T21:56:22.611Z,20.70
2019-02-24T21:58:54.685Z,20.80
2019-02-24T22:01:26.750Z,20.80
2019-02-24T22:03:58.699Z,20.20
2019-02-24T22:06:31.113Z,21.00
2019-02-24T22:09:04.057Z,21.00
2019-02-24T22:11:35.903Z,20.90
2019-02-24T22:14:07.855Z,21.00
2019-02-24T22:16:39.706Z,21.10
2019-02-24T22:19:13.057Z,21.20
2019-02-24T22:21:46.699Z,21.30
2019-02-24T22:24:18.603Z,21.50
2019-02-24T22:26:50.424Z,21.50
2019-02-24T22:29:22.176Z,21.80
2019-02-24T22:31:54.239Z,22.00
2019-02-24T22:34:25.981Z,22.00
2019-02-24T22:36:58.433Z,22.10
2019-02-24T22:39:31.158Z,22.20
2019-02-24T22:42:05.954Z,22.40
2019-02-24T22:44:40.004Z,22.50
2019-02-24T22:47:11.771Z,22.50
2019-02-24T22:49:44.140Z,22.50
2019-02-24T22:52:16.000Z,22.40
2019-02-24T22:54:48.152Z,22.50
2019-02-24T22:57:20.001Z,22.50
2019-02-24T22:59:51.783Z,22.40
2019-02-24T23:02:24.642Z,22.60
2019-02-24T23:04:56.379Z,22.80
2019-02-24T23:07:28.378Z,22.90
2019-02-24T23:10:00.280Z,22.60
2019-02-24T23:12:32.557Z,22.50
2019-02-24T23:15:04.575Z,22.60
2019-02-24T23:17:36.666Z,22.50
2019-02-24T23:20:08.905Z,22.60
2019-02-24T23:22:42.303Z,23.00
2019-02-24T23:25:14.593Z,22.70
2019-02-24T23:27:46.605Z,22.70
2019-02-24T23:30:18.472Z,22.70
2019-02-24T23:32:50.215Z,22.80
2019-02-24T23:35:22.053Z,22.90
2019-02-24T23:37:53.772Z,22.90
2019-02-24T23:40:25.579Z,22.70
2019-02-24T23:42:57.275Z,22.70
2019-02-24T23:45:29.282Z,22.80
2019-02-24T23:48:01.243Z,23.10
2019-02-24T23:50:33.045Z,23.10
2019-02-24T23:53:04.772Z,22.90
2019-02-24T23:55:36.676Z,23.10
2019-02-24T23:58:08.501Z,23.20
